sensor_id;sensor_type;location;lat;lon;timestamp;P1;durP1;ratioP1;P2;durP2;ratioP2
19867;SDS011;10096;51.112;6.776;2023-02-28T00:00:33;5.90;;;4.30;;
19867;SDS011;10096;51.112;6.776;2023-02-28T00:03:01;6.73;;;4.47;;
19867;SDS011;10096;51.112;6.776;2023-02-28T00:05:28;6.87;;;4.27;;
19867;SDS011;10096;51.112;6.776;2023-02-28T00:07:55;5.13;;;3.87;;
19867;SDS011;10096;51.112;6.776;2023-02-28T00:10:23;6.57;;;4.90;;
19867;SDS011;10096;51.112;6.776;2023-02-28T00:12:52;4.23;;;3.70;;
19867;SDS011;10096;51.112;6.776;2023-02-28T00:15:22;5.17;;;3.97;;
19867;SDS011;10096;51.112;6.776;2023-02-28T00:17:51;4.83;;;3.83;;
19867;SDS011;10096;51.112;6.776;2023-02-28T00:20:18;4.50;;;3.47;;
19867;SDS011;10096;51.112;6.776;2023-02-28T00:22:46;5.83;;;4.20;;
19867;SDS011;10096;51.112;6.776;2023-02-28T00:25:16;5.27;;;4.30;;
19867;SDS011;10096;51.112;6.776;2023-02-28T00:27:44;5.57;;;4.20;;
19867;SDS011;10096;51.112;6.776;2023-02-28T00:30:13;5.20;;;4.03;;
19867;SDS011;10096;51.112;6.776;2023-02-28T00:32:41;5.43;;;4.50;;
19867;SDS011;10096;51.112;6.776;2023-02-28T00:35:10;6.13;;;4.60;;
19867;SDS011;10096;51.112;6.776;2023-02-28T00:37:38;5.07;;;4.20;;
19867;SDS011;10096;51.112;6.776;2023-02-28T00:40:05;6.73;;;4.37;;
19867;SDS011;10096;51.112;6.776;2023-02-28T00:42:34;6.30;;;4.53;;
19867;SDS011;10096;51.112;6.776;2023-02-28T00:45:02;6.03;;;4.23;;
19867;SDS011;10096;51.112;6.776;2023-02-28T00:47:30;8.73;;;4.20;;
19867;SDS011;10096;51.112;6.776;2023-02-28T00:49:57;6.13;;;3.90;;
19867;SDS011;10096;51.112;6.776;2023-02-28T00:52:25;4.70;;;4.00;;
19867;SDS011;10096;51.112;6.776;2023-02-28T00:54:52;5.70;;;4.23;;
19867;SDS011;10096;51.112;6.776;2023-02-28T00:57:19;5.00;;;4.00;;
19867;SDS011;10096;51.112;6.776;2023-02-28T00:59:47;4.27;;;3.87;;
19867;SDS011;10096;51.112;6.776;2023-02-28T01:02:14;6.57;;;4.30;;
19867;SDS011;10096;51.112;6.776;2023-02-28T01:04:43;4.70;;;3.83;;
19867;SDS011;10096;51.112;6.776;2023-02-28T01:07:10;4.90;;;3.77;;
19867;SDS011;10096;51.112;6.776;2023-02-28T01:09:39;5.57;;;4.00;;
19867;SDS011;10096;51.112;6.776;2023-02-28T01:12:06;5.87;;;4.33;;
19867;SDS011;10096;51.112;6.776;2023-02-28T01:14:34;5.13;;;3.67;;
19867;SDS011;10096;51.112;6.776;2023-02-28T01:17:01;5.63;;;4.30;;
19867;SDS011;10096;51.112;6.776;2023-02-28T01:19:28;4.90;;;4.07;;
19867;SDS011;10096;51.112;6.776;2023-02-28T01:22:00;4.13;;;3.60;;
19867;SDS011;10096;51.112;6.776;2023-02-28T01:24:28;5.47;;;4.00;;
19867;SDS011;10096;51.112;6.776;2023-02-28T01:26:56;8.47;;;3.90;;
19867;SDS011;10096;51.112;6.776;2023-02-28T01:29:23;5.47;;;3.97;;
19867;SDS011;10096;51.112;6.776;2023-02-28T01:31:50;6.27;;;4.17;;
19867;SDS011;10096;51.112;6.776;2023-02-28T01:34:17;5.70;;;4.20;;
19867;SDS011;10096;51.112;6.776;2023-02-28T01:36:44;5.63;;;4.10;;
19867;SDS011;10096;51.112;6.776;2023-02-28T01:39:11;6.53;;;4.00;;
19867;SDS011;10096;51.112;6.776;2023-02-28T01:41:39;5.60;;;4.27;;
19867;SDS011;10096;51.112;6.776;2023-02-28T01:47:08;4.40;;;3.70;;
19867;SDS011;10096;51.112;6.776;2023-02-28T01:49:35;4.83;;;3.53;;
19867;SDS011;10096;51.112;6.776;2023-02-28T01:52:02;4.63;;;3.53;;
19867;SDS011;10096;51.112;6.776;2023-02-28T01:54:30;5.93;;;4.13;;
19867;SDS011;10096;51.112;6.776;2023-02-28T01:57:00;4.97;;;3.73;;
19867;SDS011;10096;51.112;6.776;2023-02-28T01:59:31;4.80;;;3.47;;
19867;SDS011;10096;51.112;6.776;2023-02-28T02:02:04;4.03;;;3.63;;
19867;SDS011;10096;51.112;6.776;2023-02-28T02:04:35;6.27;;;3.70;;
19867;SDS011;10096;51.112;6.776;2023-02-28T02:07:03;4.20;;;3.53;;
19867;SDS011;10096;51.112;6.776;2023-02-28T02:09:31;5.97;;;3.43;;
19867;SDS011;10096;51.112;6.776;2023-02-28T02:11:58;5.13;;;3.90;;
19867;SDS011;10096;51.112;6.776;2023-02-28T02:14:35;6.00;;;3.60;;
19867;SDS011;10096;51.112;6.776;2023-02-28T02:17:16;5.37;;;3.63;;
19867;SDS011;10096;51.112;6.776;2023-02-28T02:20:04;6.53;;;3.47;;
19867;SDS011;10096;51.112;6.776;2023-02-28T02:23:01;4.40;;;3.53;;
19867;SDS011;10096;51.112;6.776;2023-02-28T02:25:44;4.33;;;3.70;;
19867;SDS011;10096;51.112;6.776;2023-02-28T02:28:28;5.70;;;3.53;;
19867;SDS011;10096;51.112;6.776;2023-02-28T02:31:24;5.57;;;3.77;;
19867;SDS011;10096;51.112;6.776;2023-02-28T02:34:29;7.73;;;3.70;;
19867;SDS011;10096;51.112;6.776;2023-02-28T02:37:11;6.33;;;4.13;;
19867;SDS011;10096;51.112;6.776;2023-02-28T02:39:48;5.00;;;3.80;;
19867;SDS011;10096;51.112;6.776;2023-02-28T02:42:21;7.23;;;4.10;;
19867;SDS011;10096;51.112;6.776;2023-02-28T02:44:55;7.50;;;3.90;;
19867;SDS011;10096;51.112;6.776;2023-02-28T02:47:26;7.03;;;4.10;;
19867;SDS011;10096;51.112;6.776;2023-02-28T02:49:57;5.70;;;4.40;;
19867;SDS011;10096;51.112;6.776;2023-02-28T02:52:29;8.60;;;5.03;;
19867;SDS011;10096;51.112;6.776;2023-02-28T02:55:01;5.97;;;4.80;;
19867;SDS011;10096;51.112;6.776;2023-02-28T02:57:30;5.93;;;5.03;;
19867;SDS011;10096;51.112;6.776;2023-02-28T02:59:59;5.77;;;4.93;;
19867;SDS011;10096;51.112;6.776;2023-02-28T03:02:31;5.90;;;4.87;;
19867;SDS011;10096;51.112;6.776;2023-02-28T03:05:01;7.00;;;4.87;;
19867;SDS011;10096;51.112;6.776;2023-02-28T03:07:34;6.37;;;5.07;;
19867;SDS011;10096;51.112;6.776;2023-02-28T03:10:01;7.17;;;5.33;;
19867;SDS011;10096;51.112;6.776;2023-02-28T03:12:31;7.03;;;5.30;;
19867;SDS011;10096;51.112;6.776;2023-02-28T03:15:08;6.20;;;5.03;;
19867;SDS011;10096;51.112;6.776;2023-02-28T03:17:53;6.50;;;5.03;;
19867;SDS011;10096;51.112;6.776;2023-02-28T03:20:39;6.50;;;5.40;;
19867;SDS011;10096;51.112;6.776;2023-02-28T03:23:15;9.47;;;5.43;;
19867;SDS011;10096;51.112;6.776;2023-02-28T03:25:50;7.43;;;5.63;;
19867;SDS011;10096;51.112;6.776;2023-02-28T03:28:25;7.73;;;5.47;;
19867;SDS011;10096;51.112;6.776;2023-02-28T03:30:59;7.07;;;5.40;;
19867;SDS011;10096;51.112;6.776;2023-02-28T03:33:31;7.77;;;5.33;;
19867;SDS011;10096;51.112;6.776;2023-02-28T03:36:04;7.43;;;5.13;;
19867;SDS011;10096;51.112;6.776;2023-02-28T03:38:35;7.67;;;5.00;;
19867;SDS011;10096;51.112;6.776;2023-02-28T03:41:06;8.60;;;5.63;;
19867;SDS011;10096;51.112;6.776;2023-02-28T03:43:39;6.40;;;5.57;;
19867;SDS011;10096;51.112;6.776;2023-02-28T03:46:10;8.80;;;5.63;;
19867;SDS011;10096;51.112;6.776;2023-02-28T03:48:42;9.30;;;5.80;;
19867;SDS011;10096;51.112;6.776;2023-02-28T03:51:14;7.67;;;5.50;;
19867;SDS011;10096;51.112;6.776;2023-02-28T03:53:44;7.40;;;5.87;;
19867;SDS011;10096;51.112;6.776;2023-02-28T03:56:15;7.10;;;5.33;;
19867;SDS011;10096;51.112;6.776;2023-02-28T03:58:46;9.03;;;6.47;;
19867;SDS011;10096;51.112;6.776;2023-02-28T04:01:18;6.43;;;5.77;;
19867;SDS011;10096;51.112;6.776;2023-02-28T04:03:50;5.83;;;5.00;;
19867;SDS011;10096;51.112;6.776;2023-02-28T04:06:23;7.10;;;5.70;;
19867;SDS011;10096;51.112;6.776;2023-02-28T04:08:50;6.43;;;5.70;;
19867;SDS011;10096;51.112;6.776;2023-02-28T04:11:25;7.67;;;6.53;;
19867;SDS011;10096;51.112;6.776;2023-02-28T04:14:18;7.27;;;5.70;;
19867;SDS011;10096;51.112;6.776;2023-02-28T04:16:47;6.10;;;5.47;;
19867;SDS011;10096;51.112;6.776;2023-02-28T04:19:18;7.17;;;6.00;;
19867;SDS011;10096;51.112;6.776;2023-02-28T04:21:50;10.30;;;5.70;;
19867;SDS011;10096;51.112;6.776;2023-02-28T04:24:18;8.23;;;5.50;;
19867;SDS011;10096;51.112;6.776;2023-02-28T04:26:46;7.97;;;5.63;;
19867;SDS011;10096;51.112;6.776;2023-02-28T04:29:18;9.33;;;5.30;;
19867;SDS011;10096;51.112;6.776;2023-02-28T04:31:46;7.47;;;5.07;;
19867;SDS011;10096;51.112;6.776;2023-02-28T04:34:13;6.00;;;5.37;;
19867;SDS011;10096;51.112;6.776;2023-02-28T04:36:40;9.10;;;5.83;;
19867;SDS011;10096;51.112;6.776;2023-02-28T04:39:08;9.00;;;5.80;;
19867;SDS011;10096;51.112;6.776;2023-02-28T04:41:35;7.10;;;5.93;;
19867;SDS011;10096;51.112;6.776;2023-02-28T04:44:02;7.20;;;5.10;;
19867;SDS011;10096;51.112;6.776;2023-02-28T04:46:29;5.63;;;5.03;;
19867;SDS011;10096;51.112;6.776;2023-02-28T04:48:56;7.20;;;5.30;;
19867;SDS011;10096;51.112;6.776;2023-02-28T04:51:23;5.90;;;5.00;;
19867;SDS011;10096;51.112;6.776;2023-02-28T04:53:49;5.73;;;5.10;;
19867;SDS011;10096;51.112;6.776;2023-02-28T04:56:18;6.97;;;4.57;;
19867;SDS011;10096;51.112;6.776;2023-02-28T04:58:45;6.30;;;5.57;;
19867;SDS011;10096;51.112;6.776;2023-02-28T05:01:17;8.63;;;6.07;;
19867;SDS011;10096;51.112;6.776;2023-02-28T05:03:48;8.03;;;5.33;;
19867;SDS011;10096;51.112;6.776;2023-02-28T05:06:16;5.97;;;4.63;;
19867;SDS011;10096;51.112;6.776;2023-02-28T05:08:45;6.37;;;5.67;;
19867;SDS011;10096;51.112;6.776;2023-02-28T05:11:20;7.63;;;5.13;;
19867;SDS011;10096;51.112;6.776;2023-02-28T05:13:50;7.90;;;5.47;;
19867;SDS011;10096;51.112;6.776;2023-02-28T05:16:17;9.53;;;6.97;;
19867;SDS011;10096;51.112;6.776;2023-02-28T05:18:44;7.73;;;4.87;;
19867;SDS011;10096;51.112;6.776;2023-02-28T05:21:25;5.30;;;4.80;;
19867;SDS011;10096;51.112;6.776;2023-02-28T05:23:53;6.00;;;4.60;;
19867;SDS011;10096;51.112;6.776;2023-02-28T05:26:22;6.30;;;5.10;;
19867;SDS011;10096;51.112;6.776;2023-02-28T05:28:49;5.60;;;4.80;;
19867;SDS011;10096;51.112;6.776;2023-02-28T05:31:16;7.63;;;4.67;;
19867;SDS011;10096;51.112;6.776;2023-02-28T05:33:44;8.30;;;4.50;;
19867;SDS011;10096;51.112;6.776;2023-02-28T05:36:11;6.33;;;4.93;;
19867;SDS011;10096;51.112;6.776;2023-02-28T05:38:37;7.33;;;4.70;;
19867;SDS011;10096;51.112;6.776;2023-02-28T05:41:05;6.00;;;5.10;;
19867;SDS011;10096;51.112;6.776;2023-02-28T05:43:35;5.53;;;4.80;;
19867;SDS011;10096;51.112;6.776;2023-02-28T05:46:03;7.50;;;4.90;;
19867;SDS011;10096;51.112;6.776;2023-02-28T05:48:31;5.37;;;4.87;;
19867;SDS011;10096;51.112;6.776;2023-02-28T05:50:59;5.97;;;4.33;;
19867;SDS011;10096;51.112;6.776;2023-02-28T05:53:27;6.43;;;4.40;;
19867;SDS011;10096;51.112;6.776;2023-02-28T05:55:54;6.70;;;5.03;;
19867;SDS011;10096;51.112;6.776;2023-02-28T05:58:22;6.67;;;4.67;;
19867;SDS011;10096;51.112;6.776;2023-02-28T06:00:51;5.70;;;4.70;;
19867;SDS011;10096;51.112;6.776;2023-02-28T06:03:18;5.50;;;4.60;;
19867;SDS011;10096;51.112;6.776;2023-02-28T06:05:46;5.30;;;4.80;;
19867;SDS011;10096;51.112;6.776;2023-02-28T06:08:13;6.57;;;5.13;;
19867;SDS011;10096;51.112;6.776;2023-02-28T06:10:40;7.53;;;5.00;;
19867;SDS011;10096;51.112;6.776;2023-02-28T06:13:07;6.33;;;4.40;;
19867;SDS011;10096;51.112;6.776;2023-02-28T06:15:34;6.23;;;4.63;;
19867;SDS011;10096;51.112;6.776;2023-02-28T06:18:03;6.07;;;4.73;;
19867;SDS011;10096;51.112;6.776;2023-02-28T06:20:30;4.83;;;4.17;;
19867;SDS011;10096;51.112;6.776;2023-02-28T06:22:57;7.40;;;4.73;;
19867;SDS011;10096;51.112;6.776;2023-02-28T06:25:24;6.83;;;4.63;;
19867;SDS011;10096;51.112;6.776;2023-02-28T06:27:52;6.50;;;4.70;;
19867;SDS011;10096;51.112;6.776;2023-02-28T06:30:20;5.60;;;4.87;;
19867;SDS011;10096;51.112;6.776;2023-02-28T06:32:50;5.80;;;4.20;;
19867;SDS011;10096;51.112;6.776;2023-02-28T06:35:18;4.67;;;3.90;;
19867;SDS011;10096;51.112;6.776;2023-02-28T06:37:45;5.50;;;4.00;;
19867;SDS011;10096;51.112;6.776;2023-02-28T06:40:13;6.87;;;4.73;;
19867;SDS011;10096;51.112;6.776;2023-02-28T06:42:40;6.13;;;4.80;;
19867;SDS011;10096;51.112;6.776;2023-02-28T06:45:08;5.87;;;4.40;;
19867;SDS011;10096;51.112;6.776;2023-02-28T06:47:36;4.80;;;4.10;;
19867;SDS011;10096;51.112;6.776;2023-02-28T06:50:03;5.00;;;4.50;;
19867;SDS011;10096;51.112;6.776;2023-02-28T06:52:33;8.47;;;5.97;;
19867;SDS011;10096;51.112;6.776;2023-02-28T06:55:03;7.23;;;4.10;;
19867;SDS011;10096;51.112;6.776;2023-02-28T06:57:32;5.03;;;4.40;;
19867;SDS011;10096;51.112;6.776;2023-02-28T07:00:00;5.20;;;4.70;;
19867;SDS011;10096;51.112;6.776;2023-02-28T07:02:31;4.70;;;4.20;;
19867;SDS011;10096;51.112;6.776;2023-02-28T07:04:58;6.60;;;5.67;;
19867;SDS011;10096;51.112;6.776;2023-02-28T07:07:25;4.90;;;4.40;;
19867;SDS011;10096;51.112;6.776;2023-02-28T07:09:53;4.70;;;4.20;;
19867;SDS011;10096;51.112;6.776;2023-02-28T07:12:20;4.40;;;3.87;;
19867;SDS011;10096;51.112;6.776;2023-02-28T07:14:47;6.40;;;4.57;;
19867;SDS011;10096;51.112;6.776;2023-02-28T07:17:17;5.63;;;4.13;;
19867;SDS011;10096;51.112;6.776;2023-02-28T07:19:45;5.60;;;3.70;;
19867;SDS011;10096;51.112;6.776;2023-02-28T07:22:12;4.47;;;4.07;;
19867;SDS011;10096;51.112;6.776;2023-02-28T07:24:39;4.60;;;3.93;;
19867;SDS011;10096;51.112;6.776;2023-02-28T07:27:07;6.93;;;3.63;;
19867;SDS011;10096;51.112;6.776;2023-02-28T07:29:34;5.63;;;3.80;;
19867;SDS011;10096;51.112;6.776;2023-02-28T07:32:02;8.67;;;4.40;;
19867;SDS011;10096;51.112;6.776;2023-02-28T07:34:29;6.10;;;3.80;;
19867;SDS011;10096;51.112;6.776;2023-02-28T07:36:56;5.07;;;3.90;;
19867;SDS011;10096;51.112;6.776;2023-02-28T07:39:23;4.63;;;4.23;;
19867;SDS011;10096;51.112;6.776;2023-02-28T07:41:50;4.27;;;3.90;;
19867;SDS011;10096;51.112;6.776;2023-02-28T07:44:18;6.73;;;4.00;;
19867;SDS011;10096;51.112;6.776;2023-02-28T07:46:46;3.90;;;3.60;;
19867;SDS011;10096;51.112;6.776;2023-02-28T07:49:15;5.80;;;4.25;;
19867;SDS011;10096;51.112;6.776;2023-02-28T07:51:42;3.80;;;3.50;;
19867;SDS011;10096;51.112;6.776;2023-02-28T07:54:09;3.90;;;3.53;;
19867;SDS011;10096;51.112;6.776;2023-02-28T07:56:36;5.07;;;3.55;;
19867;SDS011;10096;51.112;6.776;2023-02-28T07:59:03;4.18;;;3.78;;
19867;SDS011;10096;51.112;6.776;2023-02-28T08:01:33;4.78;;;3.80;;
19867;SDS011;10096;51.112;6.776;2023-02-28T08:04:00;4.45;;;4.05;;
19867;SDS011;10096;51.112;6.776;2023-02-28T08:06:27;6.47;;;3.83;;
19867;SDS011;10096;51.112;6.776;2023-02-28T08:08:54;4.20;;;3.80;;
19867;SDS011;10096;51.112;6.776;2023-02-28T08:11:21;4.40;;;3.90;;
19867;SDS011;10096;51.112;6.776;2023-02-28T08:13:49;4.13;;;3.50;;
19867;SDS011;10096;51.112;6.776;2023-02-28T08:16:16;3.85;;;3.33;;
19867;SDS011;10096;51.112;6.776;2023-02-28T08:18:48;4.53;;;3.80;;
19867;SDS011;10096;51.112;6.776;2023-02-28T08:21:16;4.70;;;4.30;;
19867;SDS011;10096;51.112;6.776;2023-02-28T08:23:43;4.10;;;3.78;;
19867;SDS011;10096;51.112;6.776;2023-02-28T08:26:10;3.63;;;3.33;;
19867;SDS011;10096;51.112;6.776;2023-02-28T08:28:37;4.28;;;3.60;;
19867;SDS011;10096;51.112;6.776;2023-02-28T08:31:06;3.97;;;3.20;;
19867;SDS011;10096;51.112;6.776;2023-02-28T08:33:36;5.47;;;3.63;;
19867;SDS011;10096;51.112;6.776;2023-02-28T08:36:06;3.30;;;3.00;;
19867;SDS011;10096;51.112;6.776;2023-02-28T08:38:33;4.63;;;2.80;;
19867;SDS011;10096;51.112;6.776;2023-02-28T08:41:01;3.10;;;2.73;;
19867;SDS011;10096;51.112;6.776;2023-02-28T08:43:31;4.77;;;3.27;;
19867;SDS011;10096;51.112;6.776;2023-02-28T08:45:58;3.20;;;2.47;;
19867;SDS011;10096;51.112;6.776;2023-02-28T08:48:25;3.00;;;2.40;;
19867;SDS011;10096;51.112;6.776;2023-02-28T08:50:56;3.43;;;3.13;;
19867;SDS011;10096;51.112;6.776;2023-02-28T08:53:25;3.23;;;2.93;;
19867;SDS011;10096;51.112;6.776;2023-02-28T08:55:56;3.27;;;2.90;;
19867;SDS011;10096;51.112;6.776;2023-02-28T08:58:24;3.33;;;3.00;;
19867;SDS011;10096;51.112;6.776;2023-02-28T09:00:52;3.13;;;2.90;;
19867;SDS011;10096;51.112;6.776;2023-02-28T09:03:19;2.70;;;2.50;;
19867;SDS011;10096;51.112;6.776;2023-02-28T09:05:54;3.33;;;2.60;;
19867;SDS011;10096;51.112;6.776;2023-02-28T09:08:21;2.47;;;2.27;;
19867;SDS011;10096;51.112;6.776;2023-02-28T09:10:50;2.17;;;1.90;;
19867;SDS011;10096;51.112;6.776;2023-02-28T09:13:18;3.07;;;2.63;;
19867;SDS011;10096;51.112;6.776;2023-02-28T09:15:45;1.90;;;1.80;;
19867;SDS011;10096;51.112;6.776;2023-02-28T09:18:12;2.53;;;2.33;;
19867;SDS011;10096;51.112;6.776;2023-02-28T09:20:39;3.40;;;3.10;;
19867;SDS011;10096;51.112;6.776;2023-02-28T09:23:12;2.47;;;2.27;;
19867;SDS011;10096;51.112;6.776;2023-02-28T09:25:44;3.87;;;2.40;;
19867;SDS011;10096;51.112;6.776;2023-02-28T09:28:13;2.53;;;2.17;;
19867;SDS011;10096;51.112;6.776;2023-02-28T09:30:41;3.20;;;2.67;;
19867;SDS011;10096;51.112;6.776;2023-02-28T09:33:09;3.03;;;2.60;;
19867;SDS011;10096;51.112;6.776;2023-02-28T09:35:36;3.20;;;2.50;;
19867;SDS011;10096;51.112;6.776;2023-02-28T09:38:03;2.90;;;2.70;;
19867;SDS011;10096;51.112;6.776;2023-02-28T09:40:34;2.90;;;2.60;;
19867;SDS011;10096;51.112;6.776;2023-02-28T09:43:09;2.30;;;2.10;;
19867;SDS011;10096;51.112;6.776;2023-02-28T09:45:45;2.83;;;2.60;;
19867;SDS011;10096;51.112;6.776;2023-02-28T09:48:17;2.70;;;2.33;;
19867;SDS011;10096;51.112;6.776;2023-02-28T09:50:50;2.37;;;2.07;;
19867;SDS011;10096;51.112;6.776;2023-02-28T09:53:19;2.67;;;2.37;;
19867;SDS011;10096;51.112;6.776;2023-02-28T09:55:52;2.60;;;2.40;;
19867;SDS011;10096;51.112;6.776;2023-02-28T09:58:26;2.30;;;2.10;;
19867;SDS011;10096;51.112;6.776;2023-02-28T10:01:03;2.90;;;2.60;;
19867;SDS011;10096;51.112;6.776;2023-02-28T10:03:36;2.70;;;2.00;;
19867;SDS011;10096;51.112;6.776;2023-02-28T10:06:07;2.60;;;2.40;;
19867;SDS011;10096;51.112;6.776;2023-02-28T10:08:40;2.57;;;2.37;;
19867;SDS011;10096;51.112;6.776;2023-02-28T10:11:15;2.57;;;2.37;;
19867;SDS011;10096;51.112;6.776;2023-02-28T10:13:48;3.07;;;2.87;;
19867;SDS011;10096;51.112;6.776;2023-02-28T10:16:23;2.80;;;2.50;;
19867;SDS011;10096;51.112;6.776;2023-02-28T10:18:56;2.90;;;2.57;;
19867;SDS011;10096;51.112;6.776;2023-02-28T10:21:28;2.60;;;2.40;;
19867;SDS011;10096;51.112;6.776;2023-02-28T10:24:03;2.93;;;2.63;;
19867;SDS011;10096;51.112;6.776;2023-02-28T10:26:37;4.13;;;3.30;;
19867;SDS011;10096;51.112;6.776;2023-02-28T10:29:07;6.33;;;2.80;;
19867;SDS011;10096;51.112;6.776;2023-02-28T10:31:36;2.70;;;2.50;;
19867;SDS011;10096;51.112;6.776;2023-02-28T10:34:05;3.10;;;2.80;;
19867;SDS011;10096;51.112;6.776;2023-02-28T10:36:32;4.43;;;2.73;;
19867;SDS011;10096;51.112;6.776;2023-02-28T10:38:59;7.80;;;2.97;;
19867;SDS011;10096;51.112;6.776;2023-02-28T10:41:27;3.03;;;2.73;;
19867;SDS011;10096;51.112;6.776;2023-02-28T10:44:12;3.00;;;2.60;;
19867;SDS011;10096;51.112;6.776;2023-02-28T10:46:42;2.73;;;2.50;;
19867;SDS011;10096;51.112;6.776;2023-02-28T10:49:13;2.43;;;2.23;;
19867;SDS011;10096;51.112;6.776;2023-02-28T10:51:44;5.30;;;2.80;;
19867;SDS011;10096;51.112;6.776;2023-02-28T10:54:15;3.10;;;2.80;;
19867;SDS011;10096;51.112;6.776;2023-02-28T10:56:45;3.00;;;2.80;;
19867;SDS011;10096;51.112;6.776;2023-02-28T11:01:56;4.40;;;2.60;;
19867;SDS011;10096;51.112;6.776;2023-02-28T11:04:33;2.97;;;2.63;;
19867;SDS011;10096;51.112;6.776;2023-02-28T11:07:04;3.10;;;2.90;;
19867;SDS011;10096;51.112;6.776;2023-02-28T11:09:41;4.40;;;2.70;;
19867;SDS011;10096;51.112;6.776;2023-02-28T11:12:27;3.00;;;2.80;;
19867;SDS011;10096;51.112;6.776;2023-02-28T11:15:21;3.53;;;2.73;;
19867;SDS011;10096;51.112;6.776;2023-02-28T11:18:18;3.47;;;3.17;;
19867;SDS011;10096;51.112;6.776;2023-02-28T11:21:22;6.47;;;3.53;;
19867;SDS011;10096;51.112;6.776;2023-02-28T11:23:54;2.87;;;2.50;;
19867;SDS011;10096;51.112;6.776;2023-02-28T11:26:40;5.20;;;3.30;;
19867;SDS011;10096;51.112;6.776;2023-02-28T11:29:12;3.60;;;3.30;;
19867;SDS011;10096;51.112;6.776;2023-02-28T11:32:41;4.07;;;3.67;;
19867;SDS011;10096;51.112;6.776;2023-02-28T11:35:17;3.10;;;2.80;;
19867;SDS011;10096;51.112;6.776;2023-02-28T11:37:49;3.10;;;2.80;;
19867;SDS011;10096;51.112;6.776;2023-02-28T11:40:17;3.33;;;3.13;;
19867;SDS011;10096;51.112;6.776;2023-02-28T11:42:50;3.53;;;3.23;;
19867;SDS011;10096;51.112;6.776;2023-02-28T11:45:32;3.30;;;3.00;;
19867;SDS011;10096;51.112;6.776;2023-02-28T11:48:11;5.67;;;3.13;;
19867;SDS011;10096;51.112;6.776;2023-02-28T11:50:47;5.17;;;4.67;;
19867;SDS011;10096;51.112;6.776;2023-02-28T11:53:30;4.43;;;3.33;;
19867;SDS011;10096;51.112;6.776;2023-02-28T11:56:10;4.07;;;3.73;;
19867;SDS011;10096;51.112;6.776;2023-02-28T11:58:47;3.37;;;3.00;;
19867;SDS011;10096;51.112;6.776;2023-02-28T12:01:26;5.03;;;3.80;;
19867;SDS011;10096;51.112;6.776;2023-02-28T12:07:23;4.70;;;4.07;;
19867;SDS011;10096;51.112;6.776;2023-02-28T12:09:57;3.77;;;3.37;;
19867;SDS011;10096;51.112;6.776;2023-02-28T12:12:38;3.67;;;3.07;;
19867;SDS011;10096;51.112;6.776;2023-02-28T12:15:16;3.80;;;3.20;;
19867;SDS011;10096;51.112;6.776;2023-02-28T12:17:52;3.73;;;3.30;;
19867;SDS011;10096;51.112;6.776;2023-02-28T12:20:25;3.43;;;3.13;;
19867;SDS011;10096;51.112;6.776;2023-02-28T12:23:04;6.03;;;3.60;;
19867;SDS011;10096;51.112;6.776;2023-02-28T12:26:00;3.40;;;3.10;;
19867;SDS011;10096;51.112;6.776;2023-02-28T12:28:35;3.10;;;2.90;;
19867;SDS011;10096;51.112;6.776;2023-02-28T12:31:08;3.47;;;3.10;;
19867;SDS011;10096;51.112;6.776;2023-02-28T12:33:41;3.47;;;3.17;;
19867;SDS011;10096;51.112;6.776;2023-02-28T12:36:11;4.07;;;3.17;;
19867;SDS011;10096;51.112;6.776;2023-02-28T12:38:46;4.43;;;4.03;;
19867;SDS011;10096;51.112;6.776;2023-02-28T12:41:17;4.03;;;3.63;;
19867;SDS011;10096;51.112;6.776;2023-02-28T12:43:50;3.47;;;3.17;;
19867;SDS011;10096;51.112;6.776;2023-02-28T12:46:28;3.77;;;3.37;;
19867;SDS011;10096;51.112;6.776;2023-02-28T12:48:59;3.83;;;3.43;;
19867;SDS011;10096;51.112;6.776;2023-02-28T12:51:30;3.93;;;3.37;;
19867;SDS011;10096;51.112;6.776;2023-02-28T12:54:04;4.17;;;3.40;;
19867;SDS011;10096;51.112;6.776;2023-02-28T12:56:42;3.50;;;3.20;;
19867;SDS011;10096;51.112;6.776;2023-02-28T12:59:15;3.80;;;3.40;;
19867;SDS011;10096;51.112;6.776;2023-02-28T13:04:55;4.73;;;3.70;;
19867;SDS011;10096;51.112;6.776;2023-02-28T13:07:52;3.23;;;2.93;;
19867;SDS011;10096;51.112;6.776;2023-02-28T13:10:42;3.60;;;3.23;;
19867;SDS011;10096;51.112;6.776;2023-02-28T13:13:13;3.63;;;2.87;;
19867;SDS011;10096;51.112;6.776;2023-02-28T13:15:56;4.40;;;3.27;;
19867;SDS011;10096;51.112;6.776;2023-02-28T13:18:34;3.70;;;3.30;;
19867;SDS011;10096;51.112;6.776;2023-02-28T13:21:04;3.63;;;3.27;;
19867;SDS011;10096;51.112;6.776;2023-02-28T13:23:40;4.83;;;3.60;;
19867;SDS011;10096;51.112;6.776;2023-02-28T13:26:24;4.43;;;3.77;;
19867;SDS011;10096;51.112;6.776;2023-02-28T13:29:31;3.50;;;2.97;;
19867;SDS011;10096;51.112;6.776;2023-02-28T13:32:20;4.30;;;3.90;;
19867;SDS011;10096;51.112;6.776;2023-02-28T13:38:15;3.77;;;3.13;;
19867;SDS011;10096;51.112;6.776;2023-02-28T13:44:08;5.23;;;3.53;;
19867;SDS011;10096;51.112;6.776;2023-02-28T13:46:38;3.20;;;2.90;;
19867;SDS011;10096;51.112;6.776;2023-02-28T13:49:42;3.27;;;2.70;;
19867;SDS011;10096;51.112;6.776;2023-02-28T13:52:11;2.93;;;2.67;;
19867;SDS011;10096;51.112;6.776;2023-02-28T13:54:49;3.70;;;2.93;;
19867;SDS011;10096;51.112;6.776;2023-02-28T13:57:33;4.43;;;2.77;;
19867;SDS011;10096;51.112;6.776;2023-02-28T14:00:14;4.03;;;2.87;;
19867;SDS011;10096;51.112;6.776;2023-02-28T14:02:52;6.53;;;3.90;;
19867;SDS011;10096;51.112;6.776;2023-02-28T14:05:35;3.50;;;3.20;;
19867;SDS011;10096;51.112;6.776;2023-02-28T14:08:04;3.83;;;2.90;;
19867;SDS011;10096;51.112;6.776;2023-02-28T14:10:40;3.93;;;3.47;;
19867;SDS011;10096;51.112;6.776;2023-02-28T14:13:36;3.73;;;3.43;;
19867;SDS011;10096;51.112;6.776;2023-02-28T14:16:09;3.10;;;2.80;;
19867;SDS011;10096;51.112;6.776;2023-02-28T14:18:40;3.53;;;3.23;;
19867;SDS011;10096;51.112;6.776;2023-02-28T14:21:16;3.50;;;3.03;;
19867;SDS011;10096;51.112;6.776;2023-02-28T14:23:56;4.30;;;3.67;;
19867;SDS011;10096;51.112;6.776;2023-02-28T14:27:04;3.53;;;3.23;;
19867;SDS011;10096;51.112;6.776;2023-02-28T14:32:49;3.80;;;3.50;;
19867;SDS011;10096;51.112;6.776;2023-02-28T14:35:35;4.30;;;3.50;;
19867;SDS011;10096;51.112;6.776;2023-02-28T14:38:13;3.77;;;3.37;;
19867;SDS011;10096;51.112;6.776;2023-02-28T14:40:46;4.83;;;3.80;;
19867;SDS011;10096;51.112;6.776;2023-02-28T14:43:21;9.63;;;4.40;;
19867;SDS011;10096;51.112;6.776;2023-02-28T14:45:53;5.33;;;3.63;;
19867;SDS011;10096;51.112;6.776;2023-02-28T14:48:28;4.00;;;3.70;;
19867;SDS011;10096;51.112;6.776;2023-02-28T14:50:57;3.93;;;3.60;;
19867;SDS011;10096;51.112;6.776;2023-02-28T14:53:29;4.33;;;3.37;;
19867;SDS011;10096;51.112;6.776;2023-02-28T14:56:02;3.90;;;3.33;;
19867;SDS011;10096;51.112;6.776;2023-02-28T14:58:30;8.17;;;4.27;;
19867;SDS011;10096;51.112;6.776;2023-02-28T15:00:59;5.47;;;4.20;;
19867;SDS011;10096;51.112;6.776;2023-02-28T15:03:31;4.77;;;4.27;;
19867;SDS011;10096;51.112;6.776;2023-02-28T15:06:00;3.70;;;3.30;;
19867;SDS011;10096;51.112;6.776;2023-02-28T15:08:29;4.40;;;4.00;;
19867;SDS011;10096;51.112;6.776;2023-02-28T15:11:01;6.03;;;3.87;;
19867;SDS011;10096;51.112;6.776;2023-02-28T15:14:04;4.83;;;4.43;;
19867;SDS011;10096;51.112;6.776;2023-02-28T15:16:31;4.40;;;3.77;;
19867;SDS011;10096;51.112;6.776;2023-02-28T15:19:06;4.97;;;3.40;;
19867;SDS011;10096;51.112;6.776;2023-02-28T15:21:41;5.43;;;3.90;;
19867;SDS011;10096;51.112;6.776;2023-02-28T15:24:12;3.93;;;3.50;;
19867;SDS011;10096;51.112;6.776;2023-02-28T15:26:49;3.90;;;3.57;;
19867;SDS011;10096;51.112;6.776;2023-02-28T15:29:20;3.67;;;3.30;;
19867;SDS011;10096;51.112;6.776;2023-02-28T15:31:49;4.63;;;3.43;;
19867;SDS011;10096;51.112;6.776;2023-02-28T15:34:28;4.47;;;4.07;;
19867;SDS011;10096;51.112;6.776;2023-02-28T15:37:01;5.00;;;4.60;;
19867;SDS011;10096;51.112;6.776;2023-02-28T15:39:32;5.30;;;4.43;;